sensor_id;sensor_type;location;lat;lon;timestamp;P1;durP1;ratioP1;P2;durP2;ratioP2
30173;SDS011;16985;50.814;8.530;2023-01-06T00:01:10;1.50;;;1.40;;
30173;SDS011;16985;50.814;8.530;2023-01-06T00:03:41;1.60;;;1.50;;
30173;SDS011;16985;50.814;8.530;2023-01-06T00:06:08;2.47;;;1.27;;
30173;SDS011;16985;50.814;8.530;2023-01-06T00:11:09;3.05;;;1.15;;
30173;SDS011;16985;50.814;8.530;2023-01-06T00:13:39;1.05;;;0.95;;
30173;SDS011;16985;50.814;8.530;2023-01-06T00:16:06;1.67;;;1.45;;
30173;SDS011;16985;50.814;8.530;2023-01-06T00:18:35;0.85;;;0.82;;
30173;SDS011;16985;50.814;8.530;2023-01-06T00:21:03;1.63;;;0.95;;
30173;SDS011;16985;50.814;8.530;2023-01-06T00:25:56;1.23;;;1.10;;
30173;SDS011;16985;50.814;8.530;2023-01-06T00:28:22;1.27;;;1.10;;
30173;SDS011;16985;50.814;8.530;2023-01-06T00:30:48;1.48;;;0.90;;
30173;SDS011;16985;50.814;8.530;2023-01-06T00:33:14;1.73;;;1.42;;
30173;SDS011;16985;50.814;8.530;2023-01-06T00:35:39;1.30;;;1.20;;
30173;SDS011;16985;50.814;8.530;2023-01-06T00:38:05;1.45;;;1.35;;
30173;SDS011;16985;50.814;8.530;2023-01-06T00:40:31;1.60;;;1.50;;
30173;SDS011;16985;50.814;8.530;2023-01-06T00:42:57;2.15;;;1.67;;
30173;SDS011;16985;50.814;8.530;2023-01-06T00:45:23;3.47;;;1.70;;
30173;SDS011;16985;50.814;8.530;2023-01-06T00:47:49;1.77;;;1.50;;
30173;SDS011;16985;50.814;8.530;2023-01-06T00:50:15;1.63;;;1.52;;
30173;SDS011;16985;50.814;8.530;2023-01-06T00:52:41;1.90;;;1.70;;
30173;SDS011;16985;50.814;8.530;2023-01-06T00:55:07;3.20;;;1.95;;
30173;SDS011;16985;50.814;8.530;2023-01-06T00:57:34;1.90;;;1.70;;
30173;SDS011;16985;50.814;8.530;2023-01-06T00:59:59;2.42;;;1.70;;
30173;SDS011;16985;50.814;8.530;2023-01-06T01:02:25;2.47;;;1.83;;
30173;SDS011;16985;50.814;8.530;2023-01-06T01:04:51;2.42;;;1.73;;
30173;SDS011;16985;50.814;8.530;2023-01-06T01:07:17;2.20;;;1.95;;
30173;SDS011;16985;50.814;8.530;2023-01-06T01:09:43;3.53;;;1.95;;
30173;SDS011;16985;50.814;8.530;2023-01-06T01:12:09;2.28;;;1.75;;
30173;SDS011;16985;50.814;8.530;2023-01-06T01:14:40;3.88;;;2.33;;
30173;SDS011;16985;50.814;8.530;2023-01-06T01:17:21;3.22;;;1.70;;
30173;SDS011;16985;50.814;8.530;2023-01-06T01:19:50;3.28;;;2.05;;
30173;SDS011;16985;50.814;8.530;2023-01-06T01:22:18;2.70;;;1.65;;
30173;SDS011;16985;50.814;8.530;2023-01-06T01:24:45;2.38;;;1.85;;
30173;SDS011;16985;50.814;8.530;2023-01-06T01:27:11;2.15;;;1.95;;
30173;SDS011;16985;50.814;8.530;2023-01-06T01:29:37;5.00;;;2.13;;
30173;SDS011;16985;50.814;8.530;2023-01-06T01:32:03;2.10;;;1.90;;
30173;SDS011;16985;50.814;8.530;2023-01-06T01:34:29;2.63;;;1.85;;
30173;SDS011;16985;50.814;8.530;2023-01-06T01:36:54;2.78;;;2.20;;
30173;SDS011;16985;50.814;8.530;2023-01-06T01:39:22;6.13;;;3.40;;
30173;SDS011;16985;50.814;8.530;2023-01-06T01:41:51;2.50;;;2.10;;
30173;SDS011;16985;50.814;8.530;2023-01-06T01:47:45;2.58;;;2.10;;
30173;SDS011;16985;50.814;8.530;2023-01-06T01:53:09;2.28;;;2.03;;
30173;SDS011;16985;50.814;8.530;2023-01-06T01:55:43;2.92;;;1.80;;
30173;SDS011;16985;50.814;8.530;2023-01-06T01:58:12;4.00;;;2.00;;
30173;SDS011;16985;50.814;8.530;2023-01-06T02:00:44;3.58;;;1.83;;
30173;SDS011;16985;50.814;8.530;2023-01-06T02:03:11;2.15;;;1.70;;
30173;SDS011;16985;50.814;8.530;2023-01-06T02:05:39;5.25;;;2.40;;
30173;SDS011;16985;50.814;8.530;2023-01-06T02:08:21;3.03;;;1.70;;
30173;SDS011;16985;50.814;8.530;2023-01-06T02:10:56;3.55;;;2.10;;
30173;SDS011;16985;50.814;8.530;2023-01-06T02:13:23;3.08;;;2.05;;
30173;SDS011;16985;50.814;8.530;2023-01-06T02:15:49;2.08;;;1.83;;
30173;SDS011;16985;50.814;8.530;2023-01-06T02:24:24;1.98;;;1.52;;
30173;SDS011;16985;50.814;8.530;2023-01-06T02:30:19;2.88;;;1.40;;
30173;SDS011;16985;50.814;8.530;2023-01-06T02:38:18;1.30;;;1.20;;
30173;SDS011;16985;50.814;8.530;2023-01-06T02:49:42;1.10;;;1.00;;
30173;SDS011;16985;50.814;8.530;2023-01-06T02:52:55;2.10;;;1.13;;
30173;SDS011;16985;50.814;8.530;2023-01-06T02:55:34;3.45;;;1.20;;
30173;SDS011;16985;50.814;8.530;2023-01-06T02:58:14;2.63;;;1.20;;
30173;SDS011;16985;50.814;8.530;2023-01-06T03:01:16;4.67;;;1.37;;
30173;SDS011;16985;50.814;8.530;2023-01-06T03:03:49;2.15;;;1.30;;
30173;SDS011;16985;50.814;8.530;2023-01-06T03:06:18;2.42;;;1.25;;
30173;SDS011;16985;50.814;8.530;2023-01-06T03:08:51;4.07;;;1.33;;
30173;SDS011;16985;50.814;8.530;2023-01-06T03:11:20;7.15;;;1.52;;
30173;SDS011;16985;50.814;8.530;2023-01-06T03:13:58;3.88;;;1.20;;
30173;SDS011;16985;50.814;8.530;2023-01-06T03:16:39;1.35;;;1.25;;
30173;SDS011;16985;50.814;8.530;2023-01-06T03:19:05;1.52;;;1.20;;
30173;SDS011;16985;50.814;8.530;2023-01-06T03:21:33;4.80;;;1.38;;
30173;SDS011;16985;50.814;8.530;2023-01-06T03:24:05;3.03;;;1.23;;
30173;SDS011;16985;50.814;8.530;2023-01-06T03:26:33;3.90;;;1.40;;
30173;SDS011;16985;50.814;8.530;2023-01-06T03:29:02;2.78;;;1.67;;
30173;SDS011;16985;50.814;8.530;2023-01-06T03:31:37;2.78;;;1.48;;
30173;SDS011;16985;50.814;8.530;2023-01-06T03:34:22;5.32;;;1.40;;
30173;SDS011;16985;50.814;8.530;2023-01-06T03:43:15;4.75;;;1.33;;
30173;SDS011;16985;50.814;8.530;2023-01-06T03:48:51;10.68;;;1.65;;
30173;SDS011;16985;50.814;8.530;2023-01-06T03:51:28;4.45;;;2.45;;
30173;SDS011;16985;50.814;8.530;2023-01-06T04:00:11;2.30;;;1.48;;
30173;SDS011;16985;50.814;8.530;2023-01-06T04:02:54;5.03;;;1.58;;
30173;SDS011;16985;50.814;8.530;2023-01-06T04:05:26;8.18;;;1.33;;
30173;SDS011;16985;50.814;8.530;2023-01-06T04:07:54;5.57;;;1.70;;
30173;SDS011;16985;50.814;8.530;2023-01-06T04:10:21;6.50;;;2.20;;
30173;SDS011;16985;50.814;8.530;2023-01-06T04:12:51;4.90;;;1.77;;
30173;SDS011;16985;50.814;8.530;2023-01-06T04:15:23;4.03;;;1.42;;
30173;SDS011;16985;50.814;8.530;2023-01-06T04:17:53;5.20;;;1.65;;
30173;SDS011;16985;50.814;8.530;2023-01-06T04:20:22;2.95;;;1.50;;
30173;SDS011;16985;50.814;8.530;2023-01-06T04:23:17;3.87;;;1.47;;
30173;SDS011;16985;50.814;8.530;2023-01-06T04:25:43;2.53;;;1.05;;
30173;SDS011;16985;50.814;8.530;2023-01-06T04:28:14;2.90;;;1.02;;
30173;SDS011;16985;50.814;8.530;2023-01-06T04:30:41;2.58;;;1.20;;
30173;SDS011;16985;50.814;8.530;2023-01-06T04:33:06;1.83;;;1.20;;
30173;SDS011;16985;50.814;8.530;2023-01-06T04:35:34;3.30;;;1.30;;
30173;SDS011;16985;50.814;8.530;2023-01-06T04:38:00;3.80;;;1.38;;
30173;SDS011;16985;50.814;8.530;2023-01-06T04:40:27;1.57;;;0.90;;
30173;SDS011;16985;50.814;8.530;2023-01-06T04:42:53;4.47;;;1.30;;
30173;SDS011;16985;50.814;8.530;2023-01-06T04:45:31;2.53;;;1.15;;
30173;SDS011;16985;50.814;8.530;2023-01-06T04:47:58;1.05;;;1.05;;
30173;SDS011;16985;50.814;8.530;2023-01-06T04:50:25;0.90;;;0.85;;
30173;SDS011;16985;50.814;8.530;2023-01-06T04:52:50;2.33;;;0.80;;
30173;SDS011;16985;50.814;8.530;2023-01-06T04:55:16;1.55;;;1.00;;
30173;SDS011;16985;50.814;8.530;2023-01-06T04:57:42;1.60;;;1.00;;
30173;SDS011;16985;50.814;8.530;2023-01-06T05:00:08;1.13;;;1.00;;
30173;SDS011;16985;50.814;8.530;2023-01-06T05:02:35;4.43;;;0.93;;
30173;SDS011;16985;50.814;8.530;2023-01-06T05:05:00;2.97;;;0.95;;
30173;SDS011;16985;50.814;8.530;2023-01-06T05:07:26;2.38;;;1.02;;
30173;SDS011;16985;50.814;8.530;2023-01-06T05:09:52;3.58;;;0.95;;
30173;SDS011;16985;50.814;8.530;2023-01-06T05:12:18;4.97;;;1.30;;
30173;SDS011;16985;50.814;8.530;2023-01-06T05:14:43;0.98;;;0.80;;
30173;SDS011;16985;50.814;8.530;2023-01-06T05:17:09;1.83;;;0.80;;
30173;SDS011;16985;50.814;8.530;2023-01-06T05:19:35;3.30;;;0.95;;
30173;SDS011;16985;50.814;8.530;2023-01-06T05:22:01;2.00;;;0.98;;
30173;SDS011;16985;50.814;8.530;2023-01-06T05:24:26;1.23;;;0.80;;
30173;SDS011;16985;50.814;8.530;2023-01-06T05:26:52;2.03;;;1.00;;
30173;SDS011;16985;50.814;8.530;2023-01-06T05:29:19;1.15;;;1.05;;
30173;SDS011;16985;50.814;8.530;2023-01-06T05:31:44;1.60;;;0.90;;
30173;SDS011;16985;50.814;8.530;2023-01-06T05:34:10;1.75;;;0.80;;
30173;SDS011;16985;50.814;8.530;2023-01-06T05:36:36;0.98;;;0.80;;
30173;SDS011;16985;50.814;8.530;2023-01-06T05:39:02;1.35;;;0.80;;
30173;SDS011;16985;50.814;8.530;2023-01-06T05:41:27;0.70;;;0.70;;
30173;SDS011;16985;50.814;8.530;2023-01-06T05:43:53;0.68;;;0.68;;
30173;SDS011;16985;50.814;8.530;2023-01-06T05:46:19;1.17;;;0.98;;
30173;SDS011;16985;50.814;8.530;2023-01-06T05:48:45;0.80;;;0.65;;
30173;SDS011;16985;50.814;8.530;2023-01-06T05:51:12;1.08;;;0.85;;
30173;SDS011;16985;50.814;8.530;2023-01-06T05:53:40;0.90;;;0.80;;
30173;SDS011;16985;50.814;8.530;2023-01-06T05:56:09;0.90;;;0.90;;
30173;SDS011;16985;50.814;8.530;2023-01-06T05:58:37;1.25;;;0.82;;
30173;SDS011;16985;50.814;8.530;2023-01-06T06:01:13;2.78;;;0.90;;
30173;SDS011;16985;50.814;8.530;2023-01-06T06:03:47;3.25;;;0.93;;
30173;SDS011;16985;50.814;8.530;2023-01-06T06:06:14;2.20;;;0.95;;
30173;SDS011;16985;50.814;8.530;2023-01-06T06:08:40;3.40;;;1.42;;
30173;SDS011;16985;50.814;8.530;2023-01-06T06:11:07;0.80;;;0.80;;
30173;SDS011;16985;50.814;8.530;2023-01-06T06:13:35;1.30;;;0.85;;
30173;SDS011;16985;50.814;8.530;2023-01-06T06:16:09;1.63;;;0.80;;
30173;SDS011;16985;50.814;8.530;2023-01-06T06:18:38;10.55;;;1.10;;
30173;SDS011;16985;50.814;8.530;2023-01-06T06:21:09;1.70;;;1.08;;
30173;SDS011;16985;50.814;8.530;2023-01-06T06:23:40;1.90;;;1.00;;
30173;SDS011;16985;50.814;8.530;2023-01-06T06:26:07;1.38;;;1.00;;
30173;SDS011;16985;50.814;8.530;2023-01-06T06:28:34;3.23;;;1.07;;
30173;SDS011;16985;50.814;8.530;2023-01-06T06:34:00;4.78;;;1.00;;
30173;SDS011;16985;50.814;8.530;2023-01-06T06:36:28;2.85;;;1.00;;
30173;SDS011;16985;50.814;8.530;2023-01-06T06:38:55;1.20;;;1.10;;
30173;SDS011;16985;50.814;8.530;2023-01-06T06:41:22;1.30;;;0.80;;
30173;SDS011;16985;50.814;8.530;2023-01-06T06:43:49;5.80;;;1.03;;
30173;SDS011;16985;50.814;8.530;2023-01-06T06:46:16;0.95;;;0.80;;
30173;SDS011;16985;50.814;8.530;2023-01-06T06:48:43;1.80;;;0.80;;
30173;SDS011;16985;50.814;8.530;2023-01-06T06:51:10;1.67;;;1.02;;
30173;SDS011;16985;50.814;8.530;2023-01-06T06:53:40;1.05;;;0.90;;
30173;SDS011;16985;50.814;8.530;2023-01-06T06:56:07;2.10;;;1.10;;
30173;SDS011;16985;50.814;8.530;2023-01-06T06:58:35;1.95;;;1.10;;
30173;SDS011;16985;50.814;8.530;2023-01-06T07:01:11;1.33;;;1.17;;
30173;SDS011;16985;50.814;8.530;2023-01-06T07:03:39;1.60;;;1.10;;
30173;SDS011;16985;50.814;8.530;2023-01-06T07:06:06;1.45;;;1.35;;
30173;SDS011;16985;50.814;8.530;2023-01-06T07:08:35;3.65;;;1.52;;
30173;SDS011;16985;50.814;8.530;2023-01-06T07:11:01;3.85;;;1.10;;
30173;SDS011;16985;50.814;8.530;2023-01-06T07:13:27;1.42;;;1.27;;
30173;SDS011;16985;50.814;8.530;2023-01-06T07:15:53;1.95;;;1.50;;
30173;SDS011;16985;50.814;8.530;2023-01-06T07:18:19;5.32;;;1.80;;
30173;SDS011;16985;50.814;8.530;2023-01-06T07:20:46;1.92;;;1.40;;
30173;SDS011;16985;50.814;8.530;2023-01-06T07:23:14;3.58;;;1.50;;
30173;SDS011;16985;50.814;8.530;2023-01-06T07:25:40;6.07;;;1.52;;
30173;SDS011;16985;50.814;8.530;2023-01-06T07:28:06;4.40;;;1.40;;
30173;SDS011;16985;50.814;8.530;2023-01-06T07:30:33;3.78;;;1.67;;
30173;SDS011;16985;50.814;8.530;2023-01-06T07:33:01;3.35;;;1.23;;
30173;SDS011;16985;50.814;8.530;2023-01-06T07:35:27;2.10;;;1.10;;
30173;SDS011;16985;50.814;8.530;2023-01-06T07:37:53;2.17;;;1.30;;
30173;SDS011;16985;50.814;8.530;2023-01-06T07:40:19;4.47;;;1.42;;
30173;SDS011;16985;50.814;8.530;2023-01-06T07:42:45;1.55;;;1.25;;
30173;SDS011;16985;50.814;8.530;2023-01-06T07:45:12;3.15;;;1.20;;
30173;SDS011;16985;50.814;8.530;2023-01-06T07:47:38;1.45;;;1.10;;
30173;SDS011;16985;50.814;8.530;2023-01-06T07:50:04;2.53;;;1.27;;
30173;SDS011;16985;50.814;8.530;2023-01-06T07:52:30;3.47;;;1.05;;
30173;SDS011;16985;50.814;8.530;2023-01-06T07:54:56;3.03;;;1.30;;
30173;SDS011;16985;50.814;8.530;2023-01-06T07:57:24;2.78;;;1.33;;
30173;SDS011;16985;50.814;8.530;2023-01-06T07:59:51;5.23;;;1.53;;
30173;SDS011;16985;50.814;8.530;2023-01-06T08:02:17;2.00;;;1.10;;
30173;SDS011;16985;50.814;8.530;2023-01-06T08:04:43;4.03;;;1.30;;
30173;SDS011;16985;50.814;8.530;2023-01-06T08:07:09;4.95;;;1.23;;
30173;SDS011;16985;50.814;8.530;2023-01-06T08:09:37;2.95;;;1.35;;
30173;SDS011;16985;50.814;8.530;2023-01-06T08:12:02;1.63;;;0.98;;
30173;SDS011;16985;50.814;8.530;2023-01-06T08:14:28;6.82;;;2.25;;
30173;SDS011;16985;50.814;8.530;2023-01-06T08:16:54;2.05;;;0.90;;
30173;SDS011;16985;50.814;8.530;2023-01-06T08:19:20;3.22;;;1.00;;
30173;SDS011;16985;50.814;8.530;2023-01-06T08:21:45;2.25;;;1.15;;
30173;SDS011;16985;50.814;8.530;2023-01-06T08:24:11;4.38;;;1.30;;
30173;SDS011;16985;50.814;8.530;2023-01-06T08:26:37;2.60;;;1.20;;
30173;SDS011;16985;50.814;8.530;2023-01-06T08:29:03;7.00;;;1.48;;
30173;SDS011;16985;50.814;8.530;2023-01-06T08:31:29;4.35;;;1.63;;
30173;SDS011;16985;50.814;8.530;2023-01-06T08:33:54;2.83;;;1.30;;
30173;SDS011;16985;50.814;8.530;2023-01-06T08:36:21;5.15;;;1.52;;
30173;SDS011;16985;50.814;8.530;2023-01-06T08:38:48;3.28;;;1.40;;
30173;SDS011;16985;50.814;8.530;2023-01-06T08:41:14;4.68;;;1.30;;
30173;SDS011;16985;50.814;8.530;2023-01-06T08:43:41;1.77;;;1.10;;
30173;SDS011;16985;50.814;8.530;2023-01-06T08:46:10;7.17;;;1.47;;
30173;SDS011;16985;50.814;8.530;2023-01-06T08:48:39;7.68;;;1.58;;
30173;SDS011;16985;50.814;8.530;2023-01-06T08:51:06;6.00;;;1.52;;
30173;SDS011;16985;50.814;8.530;2023-01-06T08:53:37;1.35;;;1.13;;
30173;SDS011;16985;50.814;8.530;2023-01-06T08:56:03;5.50;;;1.70;;
30173;SDS011;16985;50.814;8.530;2023-01-06T08:58:35;1.75;;;1.25;;
30173;SDS011;16985;50.814;8.530;2023-01-06T09:01:01;3.53;;;1.42;;
30173;SDS011;16985;50.814;8.530;2023-01-06T09:03:27;4.30;;;2.55;;
30173;SDS011;16985;50.814;8.530;2023-01-06T09:05:54;5.55;;;1.38;;
30173;SDS011;16985;50.814;8.530;2023-01-06T09:08:21;3.55;;;2.15;;
30173;SDS011;16985;50.814;8.530;2023-01-06T09:10:48;3.13;;;1.90;;
30173;SDS011;16985;50.814;8.530;2023-01-06T09:13:14;3.35;;;1.55;;
30173;SDS011;16985;50.814;8.530;2023-01-06T09:15:41;6.28;;;2.05;;
30173;SDS011;16985;50.814;8.530;2023-01-06T09:18:08;2.90;;;1.73;;
30173;SDS011;16985;50.814;8.530;2023-01-06T09:20:35;4.40;;;1.73;;
30173;SDS011;16985;50.814;8.530;2023-01-06T09:23:02;5.10;;;1.38;;
30173;SDS011;16985;50.814;8.530;2023-01-06T09:25:28;2.83;;;1.50;;
30173;SDS011;16985;50.814;8.530;2023-01-06T09:27:54;4.05;;;1.88;;
30173;SDS011;16985;50.814;8.530;2023-01-06T09:30:20;3.67;;;1.90;;
30173;SDS011;16985;50.814;8.530;2023-01-06T09:32:49;3.20;;;1.90;;
30173;SDS011;16985;50.814;8.530;2023-01-06T09:35:15;3.17;;;1.90;;
30173;SDS011;16985;50.814;8.530;2023-01-06T09:37:40;2.85;;;1.77;;
30173;SDS011;16985;50.814;8.530;2023-01-06T09:40:08;2.72;;;1.70;;
30173;SDS011;16985;50.814;8.530;2023-01-06T09:42:43;3.75;;;1.55;;
30173;SDS011;16985;50.814;8.530;2023-01-06T09:45:35;2.47;;;1.63;;
30173;SDS011;16985;50.814;8.530;2023-01-06T09:48:13;4.43;;;2.03;;
30173;SDS011;16985;50.814;8.530;2023-01-06T09:50:52;5.65;;;1.67;;
30173;SDS011;16985;50.814;8.530;2023-01-06T09:53:33;3.58;;;1.52;;
30173;SDS011;16985;50.814;8.530;2023-01-06T09:56:06;5.47;;;1.60;;
30173;SDS011;16985;50.814;8.530;2023-01-06T09:58:39;3.10;;;1.63;;
30173;SDS011;16985;50.814;8.530;2023-01-06T10:01:23;5.78;;;2.08;;
30173;SDS011;16985;50.814;8.530;2023-01-06T10:03:56;3.65;;;1.77;;
30173;SDS011;16985;50.814;8.530;2023-01-06T10:21:07;2.90;;;1.30;;
30173;SDS011;16985;50.814;8.530;2023-01-06T10:23:47;2.28;;;1.25;;
30173;SDS011;16985;50.814;8.530;2023-01-06T10:26:43;5.82;;;1.88;;
30173;SDS011;16985;50.814;8.530;2023-01-06T10:29:16;4.15;;;1.55;;
30173;SDS011;16985;50.814;8.530;2023-01-06T10:31:45;2.88;;;1.80;;
30173;SDS011;16985;50.814;8.530;2023-01-06T10:34:18;5.85;;;3.08;;
30173;SDS011;16985;50.814;8.530;2023-01-06T10:36:53;1.90;;;1.77;;
30173;SDS011;16985;50.814;8.530;2023-01-06T10:39:26;1.95;;;1.30;;
30173;SDS011;16985;50.814;8.530;2023-01-06T10:41:57;1.95;;;1.65;;
30173;SDS011;16985;50.814;8.530;2023-01-06T10:45:33;2.58;;;1.25;;
30173;SDS011;16985;50.814;8.530;2023-01-06T10:48:06;1.55;;;1.30;;
30173;SDS011;16985;50.814;8.530;2023-01-06T10:50:45;6.90;;;1.50;;
30173;SDS011;16985;50.814;8.530;2023-01-06T10:53:12;3.80;;;1.20;;
30173;SDS011;16985;50.814;8.530;2023-01-06T10:55:43;1.75;;;1.10;;
30173;SDS011;16985;50.814;8.530;2023-01-06T10:58:32;1.60;;;1.08;;
30173;SDS011;16985;50.814;8.530;2023-01-06T11:03:40;2.72;;;1.23;;
30173;SDS011;16985;50.814;8.530;2023-01-06T11:08:49;1.17;;;1.00;;
30173;SDS011;16985;50.814;8.530;2023-01-06T11:11:15;1.85;;;1.00;;
30173;SDS011;16985;50.814;8.530;2023-01-06T11:13:50;2.67;;;1.58;;
30173;SDS011;16985;50.814;8.530;2023-01-06T11:16:27;2.65;;;1.63;;
30173;SDS011;16985;50.814;8.530;2023-01-06T11:18:56;3.35;;;1.05;;
30173;SDS011;16985;50.814;8.530;2023-01-06T11:21:36;1.33;;;1.10;;
30173;SDS011;16985;50.814;8.530;2023-01-06T11:24:08;2.95;;;0.70;;
30173;SDS011;16985;50.814;8.530;2023-01-06T11:26:44;0.60;;;0.60;;
30173;SDS011;16985;50.814;8.530;2023-01-06T11:29:30;3.03;;;0.70;;
30173;SDS011;16985;50.814;8.530;2023-01-06T11:32:00;1.08;;;0.80;;
30173;SDS011;16985;50.814;8.530;2023-01-06T11:34:58;1.30;;;0.88;;
30173;SDS011;16985;50.814;8.530;2023-01-06T11:37:36;0.68;;;0.60;;
30173;SDS011;16985;50.814;8.530;2023-01-06T11:40:20;1.58;;;0.80;;
30173;SDS011;16985;50.814;8.530;2023-01-06T11:42:54;0.75;;;0.70;;
30173;SDS011;16985;50.814;8.530;2023-01-06T11:45:40;3.25;;;0.77;;
30173;SDS011;16985;50.814;8.530;2023-01-06T11:50:53;1.40;;;1.02;;
30173;SDS011;16985;50.814;8.530;2023-01-06T11:53:22;3.42;;;1.00;;
30173;SDS011;16985;50.814;8.530;2023-01-06T11:58:34;1.45;;;1.23;;
30173;SDS011;16985;50.814;8.530;2023-01-06T12:03:57;1.20;;;0.95;;
30173;SDS011;16985;50.814;8.530;2023-01-06T12:06:39;1.08;;;0.98;;
30173;SDS011;16985;50.814;8.530;2023-01-06T12:09:12;1.45;;;1.00;;
30173;SDS011;16985;50.814;8.530;2023-01-06T12:11:54;4.13;;;1.30;;
30173;SDS011;16985;50.814;8.530;2023-01-06T12:14:26;1.45;;;0.95;;
30173;SDS011;16985;50.814;8.530;2023-01-06T12:19:38;1.63;;;1.13;;
30173;SDS011;16985;50.814;8.530;2023-01-06T12:22:30;1.13;;;1.02;;
30173;SDS011;16985;50.814;8.530;2023-01-06T12:25:22;1.77;;;0.95;;
30173;SDS011;16985;50.814;8.530;2023-01-06T12:28:34;0.70;;;0.70;;
30173;SDS011;16985;50.814;8.530;2023-01-06T12:31:02;0.95;;;0.85;;
30173;SDS011;16985;50.814;8.530;2023-01-06T12:33:46;1.55;;;0.90;;
30173;SDS011;16985;50.814;8.530;2023-01-06T12:36:38;3.22;;;0.82;;
30173;SDS011;16985;50.814;8.530;2023-01-06T12:42:24;0.82;;;0.82;;
30173;SDS011;16985;50.814;8.530;2023-01-06T12:45:02;1.10;;;1.00;;
30173;SDS011;16985;50.814;8.530;2023-01-06T12:47:41;1.77;;;1.17;;
30173;SDS011;16985;50.814;8.530;2023-01-06T12:53:10;1.63;;;1.17;;
30173;SDS011;16985;50.814;8.530;2023-01-06T12:55:57;1.10;;;1.00;;
30173;SDS011;16985;50.814;8.530;2023-01-06T13:15:52;1.60;;;1.02;;
30173;SDS011;16985;50.814;8.530;2023-01-06T13:21:07;1.75;;;1.23;;
30173;SDS011;16985;50.814;8.530;2023-01-06T13:32:40;3.35;;;2.22;;
30173;SDS011;16985;50.814;8.530;2023-01-06T13:35:29;3.83;;;2.20;;
30173;SDS011;16985;50.814;8.530;2023-01-06T13:41:36;2.08;;;1.20;;
30173;SDS011;16985;50.814;8.530;2023-01-06T13:44:06;2.08;;;1.40;;
30173;SDS011;16985;50.814;8.530;2023-01-06T13:46:52;3.05;;;1.25;;
30173;SDS011;16985;50.814;8.530;2023-01-06T13:49:30;1.20;;;1.10;;
30173;SDS011;16985;50.814;8.530;2023-01-06T13:51:56;3.08;;;1.17;;
30173;SDS011;16985;50.814;8.530;2023-01-06T14:05:06;6.05;;;2.60;;
30173;SDS011;16985;50.814;8.530;2023-01-06T14:07:58;3.03;;;1.52;;
30173;SDS011;16985;50.814;8.530;2023-01-06T14:13:22;3.25;;;1.33;;
30173;SDS011;16985;50.814;8.530;2023-01-06T14:16:06;1.08;;;0.93;;
30173;SDS011;16985;50.814;8.530;2023-01-06T14:24:05;2.88;;;1.50;;
30173;SDS011;16985;50.814;8.530;2023-01-06T14:26:51;4.00;;;1.27;;
30173;SDS011;16985;50.814;8.530;2023-01-06T14:35:02;2.40;;;2.05;;
30173;SDS011;16985;50.814;8.530;2023-01-06T14:37:50;2.83;;;1.63;;
30173;SDS011;16985;50.814;8.530;2023-01-06T14:40:23;3.20;;;2.17;;
30173;SDS011;16985;50.814;8.530;2023-01-06T14:42:57;2.17;;;1.40;;
30173;SDS011;16985;50.814;8.530;2023-01-06T14:45:28;3.55;;;1.58;;
30173;SDS011;16985;50.814;8.530;2023-01-06T14:48:02;3.33;;;1.92;;
30173;SDS011;16985;50.814;8.530;2023-01-06T14:50:34;2.80;;;1.80;;
30173;SDS011;16985;50.814;8.530;2023-01-06T14:53:13;2.20;;;1.95;;
30173;SDS011;16985;50.814;8.530;2023-01-06T14:55:49;2.40;;;1.63;;
30173;SDS011;16985;50.814;8.530;2023-01-06T14:58:25;2.55;;;1.27;;
30173;SDS011;16985;50.814;8.530;2023-01-06T15:01:04;1.88;;;1.30;;
30173;SDS011;16985;50.814;8.530;2023-01-06T15:03:31;1.80;;;1.23;;
30173;SDS011;16985;50.814;8.530;2023-01-06T15:06:08;1.13;;;1.00;;
30173;SDS011;16985;50.814;8.530;2023-01-06T15:08:45;2.10;;;1.67;;
30173;SDS011;16985;50.814;8.530;2023-01-06T15:13:51;4.85;;;2.03;;
30173;SDS011;16985;50.814;8.530;2023-01-06T15:18:49;5.93;;;1.67;;
30173;SDS011;16985;50.814;8.530;2023-01-06T15:23:45;2.30;;;1.60;;
30173;SDS011;16985;50.814;8.530;2023-01-06T15:26:19;4.38;;;1.77;;
30173;SDS011;16985;50.814;8.530;2023-01-06T15:28:59;4.35;;;2.00;;
30173;SDS011;16985;50.814;8.530;2023-01-06T15:31:27;2.40;;;1.77;;
30173;SDS011;16985;50.814;8.530;2023-01-06T15:34:02;3.15;;;1.20;;
30173;SDS011;16985;50.814;8.530;2023-01-06T15:36:33;1.70;;;1.38;;
30173;SDS011;16985;50.814;8.530;2023-01-06T15:39:00;1.20;;;1.10;;
30173;SDS011;16985;50.814;8.530;2023-01-06T15:41:29;1.73;;;1.60;;
30173;SDS011;16985;50.814;8.530;2023-01-06T15:43:59;1.67;;;1.30;;
30173;SDS011;16985;50.814;8.530;2023-01-06T15:46:26;2.58;;;1.33;;
30173;SDS011;16985;50.814;8.530;2023-01-06T15:49:03;2.05;;;1.40;;
30173;SDS011;16985;50.814;8.530;2023-01-06T15:51:30;1.40;;;1.30;;
30173;SDS011;16985;50.814;8.530;2023-01-06T15:53:56;1.60;;;1.30;;
30173;SDS011;16985;50.814;8.530;2023-01-06T15:56:24;2.95;;;1.10;;
30173;SDS011;16985;50.814;8.530;2023-01-06T15:58:53;1.38;;;1.10;;
30173;SDS011;16985;50.814;8.530;2023-01-06T16:01:22;2.30;;;1.20;;
30173;SDS011;16985;50.814;8.530;2023-01-06T16:03:56;0.85;;;0.85;;
30173;SDS011;16985;50.814;8.530;2023-01-06T16:06:32;2.45;;;1.23;;
30173;SDS011;16985;50.814;8.530;2023-01-06T16:12:26;1.63;;;1.33;;
30173;SDS011;16985;50.814;8.530;2023-01-06T16:14:34;1.95;;;1.42;;
30173;SDS011;16985;50.814;8.530;2023-01-06T16:19:52;3.97;;;1.63;;
30173;SDS011;16985;50.814;8.530;2023-01-06T16:25:25;2.47;;;1.52;;
30173;SDS011;16985;50.814;8.530;2023-01-06T16:27:58;1.80;;;1.50;;
30173;SDS011;16985;50.814;8.530;2023-01-06T16:30:27;1.85;;;1.42;;
30173;SDS011;16985;50.814;8.530;2023-01-06T16:32:55;2.10;;;1.30;;
30173;SDS011;16985;50.814;8.530;2023-01-06T16:35:27;1.73;;;1.60;;
30173;SDS011;16985;50.814;8.530;2023-01-06T16:37:56;1.67;;;1.58;;
30173;SDS011;16985;50.814;8.530;2023-01-06T16:40:23;2.60;;;1.95;;
30173;SDS011;16985;50.814;8.530;2023-01-06T16:42:58;2.95;;;2.20;;
30173;SDS011;16985;50.814;8.530;2023-01-06T16:48:14;1.60;;;1.50;;
30173;SDS011;16985;50.814;8.530;2023-01-06T16:50:43;2.00;;;1.80;;
30173;SDS011;16985;50.814;8.530;2023-01-06T16:55:42;3.25;;;2.30;;
30173;SDS011;16985;50.814;8.530;2023-01-06T16:58:18;2.92;;;2.22;;
30173;SDS011;16985;50.814;8.530;2023-01-06T17:00:55;2.80;;;1.73;;
30173;SDS011;16985;50.814;8.530;2023-01-06T17:03:33;3.75;;;1.60;;
30173;SDS011;16985;50.814;8.530;2023-01-06T17:06:01;1.30;;;1.20;;
30173;SDS011;16985;50.814;8.530;2023-01-06T17:08:28;1.30;;;1.20;;
30173;SDS011;16985;50.814;8.530;2023-01-06T17:11:00;2.60;;;1.80;;
30173;SDS011;16985;50.814;8.530;2023-01-06T17:16:05;1.67;;;1.35;;
30173;SDS011;16985;50.814;8.530;2023-01-06T17:18:44;1.60;;;1.50;;
30173;SDS011;16985;50.814;8.530;2023-01-06T17:23:58;1.52;;;1.35;;
30173;SDS011;16985;50.814;8.530;2023-01-06T17:26:39;1.92;;;1.40;;
30173;SDS011;16985;50.814;8.530;2023-01-06T17:29:13;3.55;;;1.50;;
30173;SDS011;16985;50.814;8.530;2023-01-06T17:31:42;1.30;;;1.20;;
30173;SDS011;16985;50.814;8.530;2023-01-06T17:34:12;1.98;;;1.45;;
30173;SDS011;16985;50.814;8.530;2023-01-06T17:36:41;1.63;;;1.52;;
30173;SDS011;16985;50.814;8.530;2023-01-06T17:39:34;3.75;;;1.63;;
30173;SDS011;16985;50.814;8.530;2023-01-06T17:44:40;1.83;;;1.50;;
30173;SDS011;16985;50.814;8.530;2023-01-06T17:49:40;1.30;;;1.17;;
30173;SDS011;16985;50.814;8.530;2023-01-06T17:52:20;2.15;;;1.25;;
30173;SDS011;16985;50.814;8.530;2023-01-06T17:54:52;2.97;;;1.95;;
30173;SDS011;16985;50.814;8.530;2023-01-06T17:57:42;1.83;;;1.52;;
30173;SDS011;16985;50.814;8.530;2023-01-06T18:08:15;3.67;;;1.60;;
30173;SDS011;16985;50.814;8.530;2023-01-06T18:10:43;2.22;;;1.80;;
30173;SDS011;16985;50.814;8.530;2023-01-06T18:15:57;1.50;;;1.40;;
30173;SDS011;16985;50.814;8.530;2023-01-06T18:18:31;2.17;;;1.73;;
30173;SDS011;16985;50.814;8.530;2023-01-06T18:26:35;6.60;;;2.33;;
30173;SDS011;16985;50.814;8.530;2023-01-06T18:29:08;2.30;;;2.10;;